createdAt,value
2023-03-05T00:00:40.392Z,39.78
2023-03-05T00:03:06.769Z,39.12
2023-03-05T00:05:33.180Z,38.15
2023-03-05T00:07:59.588Z,39.46
2023-03-05T00:10:25.974Z,35.42
2023-03-05T00:12:52.406Z,34.87
2023-03-05T00:15:18.830Z,33.97
2023-03-05T00:17:45.226Z,33.56
2023-03-05T00:20:11.774Z,37.11
2023-03-05T00:22:38.165Z,35.74
2023-03-05T00:25:04.606Z,36.66
2023-03-05T00:27:31.078Z,36.36
2023-03-05T00:29:57.499Z,36.07
2023-03-05T00:32:23.941Z,34.28
2023-03-05T00:34:50.456Z,34.39
2023-03-05T00:37:16.940Z,34.48
2023-03-05T00:39:43.331Z,35.14
2023-03-05T00:42:09.708Z,34.86
2023-03-05T00:44:36.076Z,34.26
2023-03-05T00:47:02.631Z,32.22
2023-03-05T00:49:29.067Z,33.75
2023-03-05T00:51:55.583Z,32.58
2023-03-05T00:54:22.007Z,32.38
2023-03-05T00:56:48.432Z,31.57
2023-03-05T00:59:14.845Z,31.28
2023-03-05T01:01:41.332Z,31.88
2023-03-05T01:04:07.752Z,31.74
2023-03-05T01:06:34.184Z,31.04
2023-03-05T01:09:00.580Z,32.16
2023-03-05T01:11:27.026Z,32.44
2023-03-05T01:13:53.450Z,32.03
2023-03-05T01:16:19.912Z,32.30
2023-03-05T01:18:46.389Z,31.71
2023-03-05T01:21:12.768Z,32.07
2023-03-05T01:23:39.229Z,33.44
2023-03-05T01:26:05.950Z,34.57
2023-03-05T01:28:32.451Z,33.75
2023-03-05T01:30:58.982Z,33.07
2023-03-05T01:33:25.410Z,34.04
2023-03-05T01:35:51.905Z,37.41
2023-03-05T01:38:18.294Z,36.16
2023-03-05T01:40:44.657Z,37.80
2023-03-05T01:43:11.058Z,37.90
2023-03-05T01:45:37.539Z,39.71
2023-03-05T01:48:04.081Z,39.90
2023-03-05T01:50:30.460Z,38.59
2023-03-05T01:52:56.879Z,39.06
2023-03-05T01:55:23.287Z,38.16
2023-03-05T01:57:49.691Z,39.83
2023-03-05T02:00:16.090Z,39.47
2023-03-05T02:02:42.503Z,39.93
2023-03-05T02:05:08.898Z,40.42
2023-03-05T02:07:35.322Z,40.73
2023-03-05T02:10:01.835Z,40.78
2023-03-05T02:12:28.263Z,41.19
2023-03-05T02:14:54.645Z,41.87
2023-03-05T02:17:21.029Z,40.72
2023-03-05T02:19:47.438Z,41.11
2023-03-05T02:22:13.981Z,42.34
2023-03-05T02:24:40.414Z,42.89
2023-03-05T02:27:06.845Z,41.79
2023-03-05T02:29:33.232Z,40.80
2023-03-05T02:31:59.795Z,41.37
2023-03-05T02:34:26.237Z,40.99
2023-03-05T02:36:52.621Z,41.38
2023-03-05T02:39:19.032Z,40.23
2023-03-05T02:41:45.454Z,40.46
2023-03-05T02:44:11.848Z,40.84
2023-03-05T02:46:38.215Z,41.62
2023-03-05T02:49:04.646Z,41.80
2023-03-05T02:51:31.375Z,39.94
2023-03-05T02:53:57.832Z,39.76
2023-03-05T02:56:24.256Z,40.04
2023-03-05T02:58:50.657Z,39.56
2023-03-05T03:01:17.088Z,38.54
2023-03-05T03:03:43.597Z,39.11
2023-03-05T03:06:10.065Z,37.41
2023-03-05T03:08:36.570Z,33.56
2023-03-05T03:11:02.931Z,35.04
2023-03-05T03:13:29.341Z,36.57
2023-03-05T03:15:55.705Z,37.67
2023-03-05T03:18:22.116Z,36.24
2023-03-05T03:20:48.549Z,35.72
2023-03-05T03:23:14.982Z,38.13
2023-03-05T03:25:41.415Z,37.27
2023-03-05T03:28:07.814Z,33.21
2023-03-05T03:30:34.458Z,33.72
2023-03-05T03:33:00.970Z,33.64
2023-03-05T03:35:27.413Z,31.84
2023-03-05T03:37:53.902Z,29.64
2023-03-05T03:40:20.330Z,29.54
2023-03-05T03:42:46.722Z,30.63
2023-03-05T03:45:13.109Z,30.48
2023-03-05T03:47:39.558Z,29.93
2023-03-05T03:50:06.064Z,31.47
2023-03-05T03:52:32.476Z,32.24
2023-03-05T03:54:58.921Z,31.51
2023-03-05T03:57:25.330Z,31.33
2023-03-05T03:59:51.761Z,31.55
2023-03-05T04:02:18.202Z,32.73
2023-03-05T04:04:44.720Z,33.65
2023-03-05T04:07:11.185Z,34.99
2023-03-05T04:09:37.603Z,33.38
2023-03-05T04:12:04.038Z,33.78
2023-03-05T04:14:30.431Z,34.22
2023-03-05T04:16:56.810Z,35.15
2023-03-05T04:19:23.232Z,34.53
2023-03-05T04:21:49.689Z,34.69
2023-03-05T04:24:16.359Z,35.65
2023-03-05T04:26:42.748Z,34.88
2023-03-05T04:29:09.174Z,35.37
2023-03-05T04:31:35.670Z,35.52
2023-03-05T04:34:02.132Z,35.79
2023-03-05T04:36:28.747Z,36.16
2023-03-05T04:38:55.255Z,35.79
2023-03-05T04:41:21.672Z,36.94
2023-03-05T04:43:48.046Z,37.96
2023-03-05T04:46:14.500Z,37.69
2023-03-05T04:48:40.911Z,36.86
2023-03-05T04:51:07.357Z,37.87
2023-03-05T04:53:33.778Z,37.67
2023-03-05T04:56:00.145Z,38.00
2023-03-05T04:58:26.608Z,37.82
2023-03-05T05:00:53.018Z,37.97
2023-03-05T05:03:19.412Z,38.92
2023-03-05T05:05:45.833Z,38.12
2023-03-05T05:08:12.206Z,38.60
2023-03-05T05:10:38.620Z,39.07
2023-03-05T05:13:05.181Z,38.42
2023-03-05T05:15:31.645Z,38.93
2023-03-05T05:17:58.056Z,38.47
2023-03-05T05:20:24.446Z,38.99
2023-03-05T05:22:50.855Z,39.18
2023-03-05T05:25:17.266Z,39.26
2023-03-05T05:27:43.776Z,38.24
2023-03-05T05:30:10.206Z,38.66
2023-03-05T05:32:36.772Z,38.62
2023-03-05T05:35:03.299Z,38.63
2023-03-05T05:37:29.696Z,38.74
2023-03-05T05:39:56.137Z,38.94
2023-03-05T05:42:22.537Z,38.95
2023-03-05T05:44:49.100Z,39.10
2023-03-05T05:47:15.664Z,38.38
2023-03-05T05:49:42.078Z,39.02
2023-03-05T05:52:08.496Z,38.52
2023-03-05T05:54:34.901Z,38.67
2023-03-05T05:57:01.329Z,38.27
2023-03-05T05:59:27.689Z,38.96
2023-03-05T06:01:54.127Z,37.98
2023-03-05T06:04:20.514Z,38.05
2023-03-05T06:06:46.912Z,37.80
2023-03-05T06:09:13.324Z,38.95
2023-03-05T06:11:39.730Z,38.62
2023-03-05T06:14:06.176Z,38.81
2023-03-05T06:16:32.668Z,38.85
2023-03-05T06:18:59.095Z,38.36
2023-03-05T06:21:25.496Z,39.50
2023-03-05T06:23:51.929Z,39.43
2023-03-05T06:26:18.551Z,39.29
2023-03-05T06:28:44.945Z,38.29
2023-03-05T06:31:11.433Z,39.09
2023-03-05T06:33:37.856Z,39.68
2023-03-05T06:36:04.258Z,39.66
2023-03-05T06:38:30.670Z,39.22
2023-03-05T06:40:57.057Z,39.25
2023-03-05T06:43:23.451Z,39.02
2023-03-05T06:45:51.166Z,39.86
2023-03-05T06:48:17.574Z,38.63
2023-03-05T06:50:43.991Z,39.19
2023-03-05T06:53:10.401Z,38.56
2023-03-05T06:55:36.878Z,39.08
2023-03-05T06:58:03.272Z,39.42
2023-03-05T07:00:29.807Z,39.08
2023-03-05T07:02:56.291Z,39.51
2023-03-05T07:05:22.716Z,39.34
2023-03-05T07:07:49.248Z,39.36
2023-03-05T07:10:15.696Z,40.10
2023-03-05T07:12:43.520Z,39.83
2023-03-05T07:15:10.010Z,39.39
2023-03-05T07:17:36.464Z,39.52
2023-03-05T07:20:02.897Z,39.57
2023-03-05T07:22:29.295Z,39.34
2023-03-05T07:24:55.690Z,39.81
2023-03-05T07:27:22.188Z,38.69
2023-03-05T07:29:49.039Z,38.62
2023-03-05T07:32:15.640Z,38.54
2023-03-05T07:34:42.046Z,38.71
2023-03-05T07:37:08.449Z,39.04
2023-03-05T07:39:34.891Z,39.24
2023-03-05T07:42:01.370Z,39.90
2023-03-05T07:44:27.939Z,39.15
2023-03-05T07:46:54.468Z,39.06
2023-03-05T07:49:20.871Z,38.91
2023-03-05T07:51:47.323Z,38.91
2023-03-05T07:54:13.759Z,38.95
2023-03-05T07:56:40.226Z,39.15
2023-03-05T07:59:06.746Z,38.32
2023-03-05T08:01:33.226Z,38.31
2023-03-05T08:03:59.702Z,39.17
2023-03-05T08:06:26.215Z,39.81
2023-03-05T08:08:52.694Z,38.84
2023-03-05T08:11:19.081Z,39.17
2023-03-05T08:13:45.505Z,40.35
2023-03-05T08:16:11.987Z,38.82
2023-03-05T08:18:38.378Z,39.31
2023-03-05T08:21:05.023Z,38.88
2023-03-05T08:23:31.445Z,39.97
2023-03-05T08:25:57.913Z,39.98
2023-03-05T08:28:24.339Z,39.24
2023-03-05T08:30:50.783Z,40.29
2023-03-05T08:33:17.238Z,40.19
2023-03-05T08:35:43.744Z,40.33
2023-03-05T08:38:10.143Z,40.55
2023-03-05T08:40:36.526Z,40.36
2023-03-05T08:43:02.920Z,40.51
2023-03-05T08:45:29.518Z,39.85
2023-03-05T08:47:55.999Z,40.20
2023-03-05T08:50:22.433Z,41.24
2023-03-05T08:52:48.912Z,40.45
2023-03-05T08:55:15.468Z,40.34
2023-03-05T08:57:41.875Z,40.29
2023-03-05T09:00:08.293Z,40.26
2023-03-05T09:02:34.883Z,41.26
2023-03-05T09:05:01.308Z,41.31
2023-03-05T09:07:27.752Z,40.98
2023-03-05T09:09:54.149Z,40.97
2023-03-05T09:12:20.635Z,40.76
2023-03-05T09:14:47.066Z,41.87
2023-03-05T09:17:13.450Z,39.64
2023-03-05T09:19:39.881Z,40.75
2023-03-05T09:22:06.353Z,40.94
2023-03-05T09:24:32.882Z,39.87
2023-03-05T09:26:59.291Z,40.66
2023-03-05T09:29:25.754Z,39.96
2023-03-05T09:31:52.207Z,40.34
2023-03-05T09:34:18.933Z,40.80
2023-03-05T09:36:45.370Z,41.19
2023-03-05T09:39:11.754Z,39.87
2023-03-05T09:41:38.383Z,40.18
2023-03-05T09:44:07.728Z,40.75
2023-03-05T09:46:34.146Z,40.27
2023-03-05T09:49:00.537Z,40.36
2023-03-05T09:51:27.163Z,40.46
2023-03-05T09:53:53.737Z,41.06
2023-03-05T09:56:20.282Z,40.40
2023-03-05T09:58:46.692Z,40.65
2023-03-05T10:01:13.075Z,39.89
2023-03-05T10:03:39.656Z,39.73
2023-03-05T10:06:06.387Z,40.25
2023-03-05T10:08:32.881Z,40.99
2023-03-05T10:10:59.374Z,40.29
2023-03-05T10:13:25.905Z,39.83
2023-03-05T10:15:52.346Z,40.03
2023-03-05T10:18:18.974Z,39.43
2023-03-05T10:20:45.422Z,38.75
2023-03-05T10:23:11.866Z,39.31
2023-03-05T10:25:38.525Z,40.75
2023-03-05T10:28:04.911Z,40.38
2023-03-05T10:30:31.323Z,38.71
2023-03-05T10:32:57.953Z,39.83
2023-03-05T10:35:24.669Z,39.36
2023-03-05T10:37:51.850Z,40.29
2023-03-05T10:40:18.414Z,40.80
2023-03-05T10:42:44.810Z,40.44
2023-03-05T10:45:13.217Z,41.04
2023-03-05T10:47:40.323Z,40.22
2023-03-05T10:50:06.762Z,40.19
2023-03-05T10:52:33.526Z,40.02
2023-03-05T10:55:00.022Z,40.41
2023-03-05T10:57:26.534Z,40.98
2023-03-05T10:59:53.018Z,40.55
2023-03-05T11:02:19.438Z,40.01
2023-03-05T11:04:46.062Z,39.75
2023-03-05T11:07:12.463Z,39.65
2023-03-05T11:09:39.048Z,39.47
2023-03-05T11:12:05.624Z,39.50
2023-03-05T11:14:32.229Z,39.83
2023-03-05T11:16:58.633Z,40.51
2023-03-05T11:19:25.096Z,40.05
2023-03-05T11:21:51.808Z,40.38
2023-03-05T11:24:18.314Z,39.37
2023-03-05T11:26:44.860Z,39.91
2023-03-05T11:29:11.296Z,39.14
2023-03-05T11:31:37.732Z,39.56
2023-03-05T11:34:05.920Z,39.57
2023-03-05T11:36:32.441Z,39.79
2023-03-05T11:39:01.052Z,40.77
2023-03-05T11:41:27.446Z,39.75
2023-03-05T11:43:53.898Z,38.56
2023-03-05T11:46:20.551Z,38.88
2023-03-05T11:48:47.050Z,37.71
2023-03-05T11:51:13.444Z,38.14
2023-03-05T11:53:39.891Z,37.03
2023-03-05T11:56:06.403Z,37.12
2023-03-05T11:58:32.894Z,38.44
2023-03-05T12:00:59.496Z,38.35
2023-03-05T12:03:25.927Z,38.21
2023-03-05T12:05:52.351Z,39.47
2023-03-05T12:08:18.766Z,39.32
2023-03-05T12:10:45.372Z,39.38
2023-03-05T12:13:11.773Z,38.98
2023-03-05T12:15:38.295Z,40.08
2023-03-05T12:18:04.729Z,38.89
2023-03-05T12:20:31.320Z,38.18
2023-03-05T12:22:57.776Z,38.23
2023-03-05T12:25:24.233Z,39.16
2023-03-05T12:27:50.600Z,37.77
2023-03-05T12:30:16.991Z,38.02
2023-03-05T12:32:43.540Z,38.95
2023-03-05T12:35:10.054Z,39.11
2023-03-05T12:37:36.460Z,38.82
2023-03-05T12:40:02.833Z,38.71
2023-03-05T12:42:29.235Z,38.00
2023-03-05T12:44:55.617Z,39.40
2023-03-05T12:47:22.064Z,39.92
2023-03-05T12:49:48.496Z,40.07
2023-03-05T12:52:15.837Z,38.36
2023-03-05T12:54:42.266Z,39.48
2023-03-05T12:57:08.690Z,39.03
2023-03-05T12:59:35.090Z,39.29
2023-03-05T13:02:01.714Z,38.26
2023-03-05T13:04:28.452Z,40.06
2023-03-05T13:06:54.900Z,38.68
2023-03-05T13:09:21.391Z,38.32
2023-03-05T13:11:47.906Z,39.45
2023-03-05T13:14:14.589Z,38.06
2023-03-05T13:16:41.081Z,38.77
2023-03-05T13:19:07.721Z,39.00
2023-03-05T13:21:34.391Z,38.31
2023-03-05T13:24:00.807Z,38.77
2023-03-05T13:26:27.215Z,39.81
2023-03-05T13:28:53.604Z,40.30
2023-03-05T13:31:20.149Z,39.38
2023-03-05T13:33:46.583Z,39.43
2023-03-05T13:36:13.163Z,39.57
2023-03-05T13:38:39.576Z,39.71
2023-03-05T13:41:06.006Z,39.74
2023-03-05T13:43:32.413Z,38.88
2023-03-05T13:46:02.057Z,38.39
2023-03-05T13:48:28.564Z,39.02
2023-03-05T13:50:55.077Z,38.61
2023-03-05T13:53:21.839Z,39.03
2023-03-05T13:55:48.324Z,38.69
2023-03-05T13:58:14.700Z,39.05
2023-03-05T14:00:41.236Z,37.79
2023-03-05T14:03:07.634Z,38.25
2023-03-05T14:05:34.032Z,37.84
2023-03-05T14:08:00.457Z,37.76
2023-03-05T14:10:26.958Z,39.36
2023-03-05T14:12:53.438Z,39.51
2023-03-05T14:15:19.869Z,39.20
2023-03-05T14:17:46.976Z,39.14
2023-03-05T14:20:13.414Z,38.41
2023-03-05T14:22:39.862Z,37.19
2023-03-05T14:25:06.270Z,38.50
2023-03-05T14:27:32.738Z,38.53
2023-03-05T14:29:59.258Z,39.51
2023-03-05T14:32:25.706Z,39.39
2023-03-05T14:34:52.085Z,37.90
2023-03-05T14:37:18.723Z,39.08
2023-03-05T14:39:46.514Z,38.64
2023-03-05T14:42:13.193Z,37.89
2023-03-05T14:44:39.643Z,38.65
2023-03-05T14:47:06.112Z,38.21
2023-03-05T14:49:32.621Z,39.21
2023-03-05T14:51:59.305Z,38.49
2023-03-05T14:54:25.885Z,38.91
2023-03-05T14:56:52.315Z,37.81
2023-03-05T14:59:18.734Z,39.12
2023-03-05T15:01:45.197Z,40.60
2023-03-05T15:04:11.860Z,39.95
2023-03-05T15:06:38.252Z,40.06
2023-03-05T15:09:04.695Z,39.82
2023-03-05T15:11:31.117Z,38.60
2023-03-05T15:13:57.725Z,39.05
2023-03-05T15:16:24.380Z,39.77
2023-03-05T15:18:50.936Z,39.28
2023-03-05T15:21:17.436Z,38.17
2023-03-05T15:23:43.892Z,37.22
2023-03-05T15:26:10.298Z,37.81
2023-03-05T15:28:36.817Z,38.02
2023-03-05T15:31:03.281Z,37.57
2023-03-05T15:33:29.748Z,37.99
2023-03-05T15:35:56.192Z,37.83
2023-03-05T15:38:22.670Z,36.62
2023-03-05T15:40:49.103Z,38.11
2023-03-05T15:43:15.549Z,38.16
2023-03-05T15:45:41.958Z,37.63
2023-03-05T15:48:08.467Z,37.57
2023-03-05T15:50:35.041Z,38.42
2023-03-05T15:53:01.830Z,39.80
2023-03-05T15:55:28.237Z,42.17
2023-03-05T15:57:54.656Z,41.26
2023-03-05T16:00:22.092Z,48.10
2023-03-05T16:02:50.134Z,39.95
2023-03-05T16:05:16.643Z,39.10
2023-03-05T16:07:43.240Z,39.65
2023-03-05T16:10:09.717Z,39.18
2023-03-05T16:12:36.270Z,38.88
2023-03-05T16:15:02.903Z,39.32
2023-03-05T16:17:29.531Z,39.82
2023-03-05T16:19:55.992Z,39.24
2023-03-05T16:22:22.686Z,39.38
2023-03-05T16:24:49.466Z,40.16
2023-03-05T16:27:15.972Z,40.11
2023-03-05T16:29:42.721Z,39.67
2023-03-05T16:32:09.817Z,38.13
2023-03-05T16:34:36.513Z,37.80
2023-03-05T16:37:03.286Z,37.68
2023-03-05T16:39:29.698Z,38.23
2023-03-05T16:41:56.110Z,37.96
2023-03-05T16:44:22.618Z,39.33
2023-03-05T16:46:49.324Z,38.21
2023-03-05T16:49:15.834Z,38.82
2023-03-05T16:51:42.503Z,39.25
2023-03-05T16:54:10.161Z,38.77
2023-03-05T16:56:37.086Z,39.72
2023-03-05T16:59:03.564Z,39.50
2023-03-05T17:01:30.072Z,39.87
2023-03-05T17:03:56.529Z,39.10
2023-03-05T17:06:23.072Z,37.96
2023-03-05T17:08:49.603Z,38.70
2023-03-05T17:11:16.063Z,38.96
2023-03-05T17:13:42.701Z,38.90
2023-03-05T17:16:09.231Z,38.64
2023-03-05T17:18:35.644Z,38.73
2023-03-05T17:21:02.402Z,37.56
2023-03-05T17:23:28.895Z,37.72
2023-03-05T17:25:55.309Z,38.14
2023-03-05T17:28:21.693Z,37.75
2023-03-05T17:30:48.110Z,37.84
2023-03-05T17:33:14.504Z,38.65
2023-03-05T17:35:40.961Z,37.18
2023-03-05T17:38:07.483Z,37.19
2023-03-05T17:40:33.997Z,37.75
2023-03-05T17:43:02.467Z,37.97
2023-03-05T17:45:28.945Z,37.37
2023-03-05T17:47:56.289Z,38.17
2023-03-05T17:50:24.270Z,38.23
2023-03-05T17:52:50.742Z,37.49
2023-03-05T17:55:17.168Z,36.69
2023-03-05T17:57:43.818Z,38.33
2023-03-05T18:00:10.242Z,38.65
2023-03-05T18:02:36.648Z,37.94
2023-03-05T18:05:04.220Z,38.01
2023-03-05T18:07:30.868Z,36.94
2023-03-05T18:09:57.636Z,38.03
2023-03-05T18:12:24.398Z,37.21
2023-03-05T18:14:50.837Z,37.43
2023-03-05T18:17:17.320Z,36.89
2023-03-05T18:19:43.873Z,37.27
2023-03-05T18:22:10.337Z,37.68
2023-03-05T18:24:36.757Z,38.68
2023-03-05T18:27:03.258Z,39.66
2023-03-05T18:29:29.738Z,39.02
2023-03-05T18:31:56.314Z,38.39
2023-03-05T18:34:22.898Z,38.07
2023-03-05T18:36:49.403Z,37.79
2023-03-05T18:39:15.897Z,37.74
2023-03-05T18:41:44.650Z,38.00
2023-03-05T18:44:11.587Z,38.90
2023-03-05T18:46:38.494Z,39.90
2023-03-05T18:49:05.163Z,38.54
2023-03-05T18:51:32.033Z,38.44
2023-03-05T18:53:58.877Z,38.08
2023-03-05T18:56:25.464Z,38.27
2023-03-05T18:58:52.008Z,38.44
2023-03-05T19:01:18.461Z,39.26
2023-03-05T19:03:45.150Z,40.33
2023-03-05T19:06:13.269Z,39.99
2023-03-05T19:08:39.859Z,40.93
2023-03-05T19:11:06.266Z,40.70
2023-03-05T19:13:32.830Z,40.91
2023-03-05T19:15:59.510Z,40.56
2023-03-05T19:18:26.003Z,39.90
2023-03-05T19:20:52.577Z,39.37
2023-03-05T19:23:19.250Z,40.02
2023-03-05T19:25:45.790Z,39.28
2023-03-05T19:28:14.219Z,39.52
2023-03-05T19:30:40.701Z,39.90
2023-03-05T19:33:07.338Z,40.93
2023-03-05T19:35:33.950Z,42.27
2023-03-05T19:38:00.556Z,43.26
2023-03-05T19:40:27.141Z,45.20
2023-03-05T19:42:56.662Z,45.63
2023-03-05T19:45:23.388Z,44.86
2023-03-05T19:47:50.038Z,45.78
2023-03-05T19:50:21.752Z,46.04
2023-03-05T19:52:48.214Z,45.96
2023-03-05T19:55:16.986Z,45.89
2023-03-05T19:57:43.491Z,45.79
2023-03-05T20:00:10.287Z,45.84
2023-03-05T20:02:36.883Z,46.60
2023-03-05T20:05:03.563Z,48.07
2023-03-05T20:07:30.245Z,49.16
2023-03-05T20:09:56.726Z,48.89
2023-03-05T20:12:23.497Z,48.24
2023-03-05T20:14:50.059Z,47.47
2023-03-05T20:17:19.574Z,49.28
2023-03-05T20:19:46.103Z,49.68
2023-03-05T20:22:12.686Z,48.47
2023-03-05T20:24:39.188Z,49.18
2023-03-05T20:27:05.755Z,48.99
2023-03-05T20:29:32.293Z,49.60
2023-03-05T20:32:01.830Z,48.28
2023-03-05T20:34:28.303Z,48.78
2023-03-05T20:36:54.837Z,49.06
2023-03-05T20:39:21.334Z,49.15
2023-03-05T20:41:59.511Z,51.43
2023-03-05T20:44:29.106Z,51.48
2023-03-05T20:46:57.250Z,47.85
2023-03-05T20:49:26.704Z,53.16
2023-03-05T20:51:55.346Z,57.89
2023-03-05T20:54:22.084Z,86.04
2023-03-05T20:56:48.764Z,48.02
2023-03-05T20:59:15.558Z,49.16
2023-03-05T21:01:42.470Z,47.87
2023-03-05T21:04:09.170Z,48.09
2023-03-05T21:06:36.325Z,48.91
2023-03-05T21:09:02.946Z,49.20
2023-03-05T21:11:29.724Z,49.34
2023-03-05T21:13:56.382Z,49.83
2023-03-05T21:16:23.443Z,49.57
2023-03-05T21:18:50.124Z,49.18
2023-03-05T21:21:16.545Z,48.69
2023-03-05T21:23:43.227Z,47.41
2023-03-05T21:26:10.027Z,47.67
2023-03-05T21:28:36.494Z,48.15
2023-03-05T21:31:05.607Z,46.79
2023-03-05T21:33:32.213Z,49.70
2023-03-05T21:35:58.967Z,49.51
2023-03-05T21:38:25.411Z,48.54
2023-03-05T21:40:52.486Z,48.95
2023-03-05T21:43:19.560Z,50.10
2023-03-05T21:45:46.131Z,49.99
2023-03-05T21:48:13.131Z,49.69
2023-03-05T21:50:39.902Z,49.87
2023-03-05T21:53:06.908Z,49.68
2023-03-05T21:55:33.650Z,50.28
2023-03-05T21:58:00.278Z,48.88
2023-03-05T22:00:26.729Z,49.25
2023-03-05T22:02:56.181Z,47.88
2023-03-05T22:05:23.150Z,47.93
2023-03-05T22:07:49.757Z,49.03
2023-03-05T22:10:16.521Z,48.78
2023-03-05T22:12:43.050Z,47.93
2023-03-05T22:15:09.525Z,48.82
2023-03-05T22:17:37.900Z,48.39
2023-03-05T22:20:04.410Z,46.81
2023-03-05T22:22:31.042Z,48.11
2023-03-05T22:24:57.611Z,46.82
2023-03-05T22:27:29.069Z,46.85
2023-03-05T22:29:55.763Z,46.56
2023-03-05T22:32:22.263Z,46.96
2023-03-05T22:34:48.759Z,46.66
2023-03-05T22:37:15.793Z,46.40
2023-03-05T22:39:42.252Z,46.95
2023-03-05T22:42:08.685Z,47.10
2023-03-05T22:44:41.625Z,45.57
2023-03-05T22:47:08.090Z,45.91
2023-03-05T22:49:34.858Z,45.58
2023-03-05T22:52:01.573Z,45.89
2023-03-05T22:54:28.397Z,46.07
2023-03-05T22:56:55.110Z,46.08
2023-03-05T22:59:21.776Z,46.25
2023-03-05T23:01:48.508Z,46.06
2023-03-05T23:04:16.205Z,47.02
2023-03-05T23:06:43.363Z,47.23
2023-03-05T23:09:10.147Z,45.73
2023-03-05T23:11:36.773Z,45.54
2023-03-05T23:14:03.466Z,46.64
2023-03-05T23:16:29.994Z,47.39
2023-03-05T23:18:56.754Z,46.80
2023-03-05T23:21:24.090Z,45.75
2023-03-05T23:23:50.958Z,46.89
2023-03-05T23:26:17.999Z,47.26
2023-03-05T23:28:44.816Z,47.08
2023-03-05T23:31:11.512Z,46.68
2023-03-05T23:33:38.091Z,45.86
2023-03-05T23:36:04.732Z,45.76
2023-03-05T23:38:31.154Z,45.69
2023-03-05T23:41:00.789Z,45.12
2023-03-05T23:43:29.498Z,45.65
2023-03-05T23:45:56.170Z,46.71
2023-03-05T23:48:22.833Z,45.83
2023-03-05T23:50:49.466Z,45.42
2023-03-05T23:53:15.856Z,46.81
2023-03-05T23:55:42.256Z,48.22
2023-03-05T23:58:10.817Z,48.22
